sensor_id;sensor_type;location;lat;lon;timestamp;temperature;humidity
2030;DHT22;1020;48.854;8.830;2023-08-06T00:00:22;13.20;99.90
2030;DHT22;1020;48.854;8.830;2023-08-06T00:02:49;13.20;99.90
2030;DHT22;1020;48.854;8.830;2023-08-06T00:05:16;13.20;99.90
2030;DHT22;1020;48.854;8.830;2023-08-06T00:07:43;13.20;99.90
2030;DHT22;1020;48.854;8.830;2023-08-06T00:10:11;13.20;99.90
2030;DHT22;1020;48.854;8.830;2023-08-06T00:12:38;13.10;99.90
2030;DHT22;1020;48.854;8.830;2023-08-06T00:15:06;13.00;99.90
2030;DHT22;1020;48.854;8.830;2023-08-06T00:17:33;13.00;99.90
2030;DHT22;1020;48.854;8.830;2023-08-06T00:20:00;13.00;99.90
2030;DHT22;1020;48.854;8.830;2023-08-06T00:22:30;12.90;99.90
2030;DHT22;1020;48.854;8.830;2023-08-06T00:24:57;12.90;99.90
2030;DHT22;1020;48.854;8.830;2023-08-06T00:27:25;12.80;99.90
2030;DHT22;1020;48.854;8.830;2023-08-06T00:29:52;12.80;99.90
2030;DHT22;1020;48.854;8.830;2023-08-06T00:32:19;12.70;99.90
2030;DHT22;1020;48.854;8.830;2023-08-06T00:34:46;12.80;99.90
2030;DHT22;1020;48.854;8.830;2023-08-06T00:37:15;12.70;99.90
2030;DHT22;1020;48.854;8.830;2023-08-06T00:39:41;12.80;99.90
2030;DHT22;1020;48.854;8.830;2023-08-06T00:42:08;12.70;99.90
2030;DHT22;1020;48.854;8.830;2023-08-06T00:44:37;12.70;99.90
2030;DHT22;1020;48.854;8.830;2023-08-06T00:47:04;12.60;99.90
2030;DHT22;1020;48.854;8.830;2023-08-06T00:49:31;12.50;99.90
2030;DHT22;1020;48.854;8.830;2023-08-06T00:51:58;12.50;99.90
2030;DHT22;1020;48.854;8.830;2023-08-06T00:54:28;12.50;99.90
2030;DHT22;1020;48.854;8.830;2023-08-06T00:56:55;12.50;99.90
2030;DHT22;1020;48.854;8.830;2023-08-06T00:59:23;12.50;99.90
2030;DHT22;1020;48.854;8.830;2023-08-06T01:01:51;12.50;99.90
2030;DHT22;1020;48.854;8.830;2023-08-06T01:04:18;12.50;99.90
2030;DHT22;1020;48.854;8.830;2023-08-06T01:06:55;12.50;99.90
2030;DHT22;1020;48.854;8.830;2023-08-06T01:09:34;12.50;99.90
2030;DHT22;1020;48.854;8.830;2023-08-06T01:12:09;12.50;99.90
2030;DHT22;1020;48.854;8.830;2023-08-06T01:14:54;12.60;99.90
2030;DHT22;1020;48.854;8.830;2023-08-06T01:17:24;12.60;99.90
2030;DHT22;1020;48.854;8.830;2023-08-06T01:19:52;12.60;99.90
2030;DHT22;1020;48.854;8.830;2023-08-06T01:22:20;12.60;99.90
2030;DHT22;1020;48.854;8.830;2023-08-06T01:24:49;12.60;99.90
2030;DHT22;1020;48.854;8.830;2023-08-06T01:27:23;12.60;99.90
2030;DHT22;1020;48.854;8.830;2023-08-06T01:29:58;12.60;99.90
2030;DHT22;1020;48.854;8.830;2023-08-06T01:32:26;12.60;99.90
2030;DHT22;1020;48.854;8.830;2023-08-06T01:34:54;12.60;99.90
2030;DHT22;1020;48.854;8.830;2023-08-06T01:37:23;12.50;99.90
2030;DHT22;1020;48.854;8.830;2023-08-06T01:39:50;12.50;99.90
2030;DHT22;1020;48.854;8.830;2023-08-06T01:42:16;12.50;99.90
2030;DHT22;1020;48.854;8.830;2023-08-06T01:44:43;12.40;99.90
2030;DHT22;1020;48.854;8.830;2023-08-06T01:47:10;12.40;99.90
2030;DHT22;1020;48.854;8.830;2023-08-06T01:49:37;12.40;99.90
2030;DHT22;1020;48.854;8.830;2023-08-06T01:52:04;12.40;99.90
2030;DHT22;1020;48.854;8.830;2023-08-06T01:54:32;12.50;99.90
2030;DHT22;1020;48.854;8.830;2023-08-06T01:56:59;12.50;99.90
2030;DHT22;1020;48.854;8.830;2023-08-06T01:59:26;12.60;99.90
2030;DHT22;1020;48.854;8.830;2023-08-06T02:01:52;12.60;99.90
2030;DHT22;1020;48.854;8.830;2023-08-06T02:04:19;12.60;99.90
2030;DHT22;1020;48.854;8.830;2023-08-06T02:06:46;12.60;99.90
2030;DHT22;1020;48.854;8.830;2023-08-06T02:09:13;12.60;99.90
2030;DHT22;1020;48.854;8.830;2023-08-06T02:11:41;12.60;99.90
2030;DHT22;1020;48.854;8.830;2023-08-06T02:14:07;12.70;99.90
2030;DHT22;1020;48.854;8.830;2023-08-06T02:16:34;12.60;99.90
2030;DHT22;1020;48.854;8.830;2023-08-06T02:19:01;12.60;99.90
2030;DHT22;1020;48.854;8.830;2023-08-06T02:21:27;12.60;99.90
2030;DHT22;1020;48.854;8.830;2023-08-06T02:23:54;12.70;99.90
2030;DHT22;1020;48.854;8.830;2023-08-06T02:26:21;12.70;99.90
2030;DHT22;1020;48.854;8.830;2023-08-06T02:28:49;12.70;99.90
2030;DHT22;1020;48.854;8.830;2023-08-06T02:31:16;12.70;99.90
2030;DHT22;1020;48.854;8.830;2023-08-06T02:33:42;12.70;99.90
2030;DHT22;1020;48.854;8.830;2023-08-06T02:36:09;12.70;99.90
2030;DHT22;1020;48.854;8.830;2023-08-06T02:38:36;12.70;99.90
2030;DHT22;1020;48.854;8.830;2023-08-06T02:41:03;12.70;99.90
2030;DHT22;1020;48.854;8.830;2023-08-06T02:43:30;12.70;99.90
2030;DHT22;1020;48.854;8.830;2023-08-06T02:45:58;12.70;99.90
2030;DHT22;1020;48.854;8.830;2023-08-06T02:48:25;12.70;99.90
2030;DHT22;1020;48.854;8.830;2023-08-06T02:50:52;12.70;99.90
2030;DHT22;1020;48.854;8.830;2023-08-06T02:53:19;12.70;99.90
2030;DHT22;1020;48.854;8.830;2023-08-06T02:55:47;12.80;99.90
2030;DHT22;1020;48.854;8.830;2023-08-06T02:58:14;12.80;99.90
2030;DHT22;1020;48.854;8.830;2023-08-06T03:00:41;12.80;99.90
2030;DHT22;1020;48.854;8.830;2023-08-06T03:03:10;12.90;99.90
2030;DHT22;1020;48.854;8.830;2023-08-06T03:05:36;13.10;99.90
2030;DHT22;1020;48.854;8.830;2023-08-06T03:08:03;13.10;99.90
2030;DHT22;1020;48.854;8.830;2023-08-06T03:10:30;13.10;99.90
2030;DHT22;1020;48.854;8.830;2023-08-06T03:12:57;13.10;99.90
2030;DHT22;1020;48.854;8.830;2023-08-06T03:15:23;13.00;99.90
2030;DHT22;1020;48.854;8.830;2023-08-06T03:17:50;13.00;99.90
2030;DHT22;1020;48.854;8.830;2023-08-06T03:20:18;13.10;99.90
2030;DHT22;1020;48.854;8.830;2023-08-06T03:22:45;13.10;99.90
2030;DHT22;1020;48.854;8.830;2023-08-06T03:25:12;13.20;99.90
2030;DHT22;1020;48.854;8.830;2023-08-06T03:27:38;13.20;99.90
2030;DHT22;1020;48.854;8.830;2023-08-06T03:30:06;13.30;99.90
2030;DHT22;1020;48.854;8.830;2023-08-06T03:32:33;13.40;99.90
2030;DHT22;1020;48.854;8.830;2023-08-06T03:35:00;13.30;99.90
2030;DHT22;1020;48.854;8.830;2023-08-06T03:37:28;13.40;99.90
2030;DHT22;1020;48.854;8.830;2023-08-06T03:39:55;13.40;99.90
2030;DHT22;1020;48.854;8.830;2023-08-06T03:42:21;13.40;99.90
2030;DHT22;1020;48.854;8.830;2023-08-06T03:44:48;13.40;99.90
2030;DHT22;1020;48.854;8.830;2023-08-06T03:47:15;13.40;99.90
2030;DHT22;1020;48.854;8.830;2023-08-06T03:49:41;13.40;99.90
2030;DHT22;1020;48.854;8.830;2023-08-06T03:52:08;13.40;99.90
2030;DHT22;1020;48.854;8.830;2023-08-06T03:54:36;13.40;99.90
2030;DHT22;1020;48.854;8.830;2023-08-06T03:57:04;13.40;99.90
2030;DHT22;1020;48.854;8.830;2023-08-06T03:59:31;13.40;99.90
2030;DHT22;1020;48.854;8.830;2023-08-06T04:01:58;13.30;99.90
2030;DHT22;1020;48.854;8.830;2023-08-06T04:04:25;13.30;99.90
2030;DHT22;1020;48.854;8.830;2023-08-06T04:06:51;13.30;99.90
2030;DHT22;1020;48.854;8.830;2023-08-06T04:09:18;13.40;99.90
2030;DHT22;1020;48.854;8.830;2023-08-06T04:11:46;13.50;99.90
2030;DHT22;1020;48.854;8.830;2023-08-06T04:14:13;13.50;99.90
2030;DHT22;1020;48.854;8.830;2023-08-06T04:16:40;13.40;99.90
2030;DHT22;1020;48.854;8.830;2023-08-06T04:19:06;13.40;99.90
2030;DHT22;1020;48.854;8.830;2023-08-06T04:21:33;13.40;99.90
2030;DHT22;1020;48.854;8.830;2023-08-06T04:24:00;13.40;99.90
2030;DHT22;1020;48.854;8.830;2023-08-06T04:26:27;13.40;99.90
2030;DHT22;1020;48.854;8.830;2023-08-06T04:28:55;13.30;99.90
2030;DHT22;1020;48.854;8.830;2023-08-06T04:31:21;13.30;99.90
2030;DHT22;1020;48.854;8.830;2023-08-06T04:33:48;13.30;99.90
2030;DHT22;1020;48.854;8.830;2023-08-06T04:36:15;13.20;99.90
2030;DHT22;1020;48.854;8.830;2023-08-06T04:38:42;13.20;99.90
2030;DHT22;1020;48.854;8.830;2023-08-06T04:41:10;13.20;99.90
2030;DHT22;1020;48.854;8.830;2023-08-06T04:43:37;13.30;99.90
2030;DHT22;1020;48.854;8.830;2023-08-06T04:46:05;13.30;99.90
2030;DHT22;1020;48.854;8.830;2023-08-06T04:48:32;13.30;99.90
2030;DHT22;1020;48.854;8.830;2023-08-06T04:50:59;13.30;99.90
2030;DHT22;1020;48.854;8.830;2023-08-06T04:53:25;13.30;99.90
2030;DHT22;1020;48.854;8.830;2023-08-06T04:55:52;13.40;99.90
2030;DHT22;1020;48.854;8.830;2023-08-06T04:58:19;13.40;99.90
2030;DHT22;1020;48.854;8.830;2023-08-06T05:00:46;13.50;99.90
2030;DHT22;1020;48.854;8.830;2023-08-06T05:03:14;13.50;99.90
2030;DHT22;1020;48.854;8.830;2023-08-06T05:05:41;13.50;99.90
2030;DHT22;1020;48.854;8.830;2023-08-06T05:08:13;13.50;99.90
2030;DHT22;1020;48.854;8.830;2023-08-06T05:10:42;13.60;99.90
2030;DHT22;1020;48.854;8.830;2023-08-06T05:13:09;13.60;99.90
2030;DHT22;1020;48.854;8.830;2023-08-06T05:15:35;13.60;99.90
2030;DHT22;1020;48.854;8.830;2023-08-06T05:18:02;13.60;99.90
2030;DHT22;1020;48.854;8.830;2023-08-06T05:20:30;13.60;99.90
2030;DHT22;1020;48.854;8.830;2023-08-06T05:22:57;13.60;99.90
2030;DHT22;1020;48.854;8.830;2023-08-06T05:25:24;13.60;99.90
2030;DHT22;1020;48.854;8.830;2023-08-06T05:27:51;13.70;99.90
2030;DHT22;1020;48.854;8.830;2023-08-06T05:30:18;13.70;99.90
2030;DHT22;1020;48.854;8.830;2023-08-06T05:32:45;13.70;99.90
2030;DHT22;1020;48.854;8.830;2023-08-06T05:35:12;13.70;99.90
2030;DHT22;1020;48.854;8.830;2023-08-06T05:37:40;13.70;99.90
2030;DHT22;1020;48.854;8.830;2023-08-06T05:40:07;13.60;99.90
2030;DHT22;1020;48.854;8.830;2023-08-06T05:42:34;13.60;99.90
2030;DHT22;1020;48.854;8.830;2023-08-06T05:45:02;13.50;99.90
2030;DHT22;1020;48.854;8.830;2023-08-06T05:47:29;13.40;99.90
2030;DHT22;1020;48.854;8.830;2023-08-06T05:49:56;13.30;99.90
2030;DHT22;1020;48.854;8.830;2023-08-06T05:52:22;13.20;99.90
2030;DHT22;1020;48.854;8.830;2023-08-06T05:54:51;13.20;99.90
2030;DHT22;1020;48.854;8.830;2023-08-06T05:57:17;13.20;99.90
2030;DHT22;1020;48.854;8.830;2023-08-06T05:59:44;13.20;99.90
2030;DHT22;1020;48.854;8.830;2023-08-06T06:02:11;13.20;99.90
2030;DHT22;1020;48.854;8.830;2023-08-06T06:04:37;13.10;99.90
2030;DHT22;1020;48.854;8.830;2023-08-06T06:07:04;13.10;99.90
2030;DHT22;1020;48.854;8.830;2023-08-06T06:09:31;13.20;99.90
2030;DHT22;1020;48.854;8.830;2023-08-06T06:11:59;13.20;99.90
2030;DHT22;1020;48.854;8.830;2023-08-06T06:14:26;13.20;99.90
2030;DHT22;1020;48.854;8.830;2023-08-06T06:16:52;13.30;99.90
2030;DHT22;1020;48.854;8.830;2023-08-06T06:19:19;13.30;99.90
2030;DHT22;1020;48.854;8.830;2023-08-06T06:21:46;13.30;99.90
2030;DHT22;1020;48.854;8.830;2023-08-06T06:24:13;13.30;99.90
2030;DHT22;1020;48.854;8.830;2023-08-06T06:26:40;13.30;99.90
2030;DHT22;1020;48.854;8.830;2023-08-06T06:29:08;13.40;99.90
2030;DHT22;1020;48.854;8.830;2023-08-06T06:31:34;13.50;99.90
2030;DHT22;1020;48.854;8.830;2023-08-06T06:34:01;13.50;99.90
2030;DHT22;1020;48.854;8.830;2023-08-06T06:36:28;13.40;99.90
2030;DHT22;1020;48.854;8.830;2023-08-06T06:38:55;13.50;99.90
2030;DHT22;1020;48.854;8.830;2023-08-06T06:41:21;13.40;99.90
2030;DHT22;1020;48.854;8.830;2023-08-06T06:43:49;13.50;99.90
2030;DHT22;1020;48.854;8.830;2023-08-06T06:46:17;13.60;99.90
2030;DHT22;1020;48.854;8.830;2023-08-06T06:48:44;13.60;99.90
2030;DHT22;1020;48.854;8.830;2023-08-06T06:51:10;13.60;99.90
2030;DHT22;1020;48.854;8.830;2023-08-06T06:53:37;13.60;99.90
2030;DHT22;1020;48.854;8.830;2023-08-06T06:56:05;13.60;99.90
2030;DHT22;1020;48.854;8.830;2023-08-06T06:58:32;13.70;99.90
2030;DHT22;1020;48.854;8.830;2023-08-06T07:00:59;13.70;99.90
2030;DHT22;1020;48.854;8.830;2023-08-06T07:03:27;13.70;99.90
2030;DHT22;1020;48.854;8.830;2023-08-06T07:05:57;13.70;99.90
2030;DHT22;1020;48.854;8.830;2023-08-06T07:08:25;13.60;99.90
2030;DHT22;1020;48.854;8.830;2023-08-06T07:10:59;13.70;99.90
2030;DHT22;1020;48.854;8.830;2023-08-06T07:13:26;13.70;99.90
2030;DHT22;1020;48.854;8.830;2023-08-06T07:15:54;13.70;99.90
2030;DHT22;1020;48.854;8.830;2023-08-06T07:18:21;13.80;99.90
2030;DHT22;1020;48.854;8.830;2023-08-06T07:20:49;13.90;99.90
2030;DHT22;1020;48.854;8.830;2023-08-06T07:23:16;13.80;99.90
2030;DHT22;1020;48.854;8.830;2023-08-06T07:25:43;13.80;99.90
2030;DHT22;1020;48.854;8.830;2023-08-06T07:28:10;13.80;99.90
2030;DHT22;1020;48.854;8.830;2023-08-06T07:30:38;13.80;99.90
2030;DHT22;1020;48.854;8.830;2023-08-06T07:33:05;13.70;99.90
2030;DHT22;1020;48.854;8.830;2023-08-06T07:35:32;13.70;99.90
2030;DHT22;1020;48.854;8.830;2023-08-06T07:38:00;13.70;99.90
2030;DHT22;1020;48.854;8.830;2023-08-06T07:40:27;13.80;99.90
2030;DHT22;1020;48.854;8.830;2023-08-06T07:42:54;13.90;99.90
2030;DHT22;1020;48.854;8.830;2023-08-06T07:45:21;13.90;99.90
2030;DHT22;1020;48.854;8.830;2023-08-06T07:47:47;14.10;99.90
2030;DHT22;1020;48.854;8.830;2023-08-06T07:50:14;14.20;99.90
2030;DHT22;1020;48.854;8.830;2023-08-06T07:52:41;14.30;99.90
2030;DHT22;1020;48.854;8.830;2023-08-06T07:55:09;15.10;99.90
2030;DHT22;1020;48.854;8.830;2023-08-06T07:57:36;14.40;99.90
2030;DHT22;1020;48.854;8.830;2023-08-06T08:00:05;14.50;99.90
2030;DHT22;1020;48.854;8.830;2023-08-06T08:02:32;14.80;99.90
2030;DHT22;1020;48.854;8.830;2023-08-06T08:04:59;14.90;99.90
2030;DHT22;1020;48.854;8.830;2023-08-06T08:07:25;14.90;99.90
2030;DHT22;1020;48.854;8.830;2023-08-06T08:09:54;14.80;99.90
2030;DHT22;1020;48.854;8.830;2023-08-06T08:12:23;15.00;99.90
2030;DHT22;1020;48.854;8.830;2023-08-06T08:14:51;15.10;99.90
2030;DHT22;1020;48.854;8.830;2023-08-06T08:17:17;15.30;99.90
2030;DHT22;1020;48.854;8.830;2023-08-06T08:19:44;15.40;99.90
2030;DHT22;1020;48.854;8.830;2023-08-06T08:22:11;15.50;99.90
2030;DHT22;1020;48.854;8.830;2023-08-06T08:24:38;15.70;99.90
2030;DHT22;1020;48.854;8.830;2023-08-06T08:27:05;13.90;99.90
2030;DHT22;1020;48.854;8.830;2023-08-06T08:29:33;15.90;97.60
2030;DHT22;1020;48.854;8.830;2023-08-06T08:32:00;15.80;95.40
2030;DHT22;1020;48.854;8.830;2023-08-06T08:34:26;15.60;99.90
2030;DHT22;1020;48.854;8.830;2023-08-06T08:36:53;15.30;99.90
2030;DHT22;1020;48.854;8.830;2023-08-06T08:39:20;15.00;99.90
2030;DHT22;1020;48.854;8.830;2023-08-06T08:41:46;14.70;99.90
2030;DHT22;1020;48.854;8.830;2023-08-06T08:44:15;14.40;99.90
2030;DHT22;1020;48.854;8.830;2023-08-06T08:46:44;14.30;99.90
2030;DHT22;1020;48.854;8.830;2023-08-06T08:49:11;14.30;99.90
2030;DHT22;1020;48.854;8.830;2023-08-06T08:51:38;14.30;99.90
2030;DHT22;1020;48.854;8.830;2023-08-06T08:54:07;15.00;99.90
2030;DHT22;1020;48.854;8.830;2023-08-06T08:56:34;15.00;99.90
2030;DHT22;1020;48.854;8.830;2023-08-06T08:59:01;15.00;99.90
2030;DHT22;1020;48.854;8.830;2023-08-06T09:01:28;14.70;99.90
2030;DHT22;1020;48.854;8.830;2023-08-06T09:03:57;14.60;99.90
2030;DHT22;1020;48.854;8.830;2023-08-06T09:06:26;14.80;99.90
2030;DHT22;1020;48.854;8.830;2023-08-06T09:09:00;14.90;99.90
2030;DHT22;1020;48.854;8.830;2023-08-06T09:11:28;14.70;99.90
2030;DHT22;1020;48.854;8.830;2023-08-06T09:13:57;14.60;99.90
2030;DHT22;1020;48.854;8.830;2023-08-06T09:16:24;14.60;99.90
2030;DHT22;1020;48.854;8.830;2023-08-06T09:18:50;14.50;99.90
2030;DHT22;1020;48.854;8.830;2023-08-06T09:21:19;14.50;99.90
2030;DHT22;1020;48.854;8.830;2023-08-06T09:23:45;14.60;99.90
2030;DHT22;1020;48.854;8.830;2023-08-06T09:26:12;14.70;99.90
2030;DHT22;1020;48.854;8.830;2023-08-06T09:28:40;14.60;99.90
2030;DHT22;1020;48.854;8.830;2023-08-06T09:31:09;16.10;99.90
2030;DHT22;1020;48.854;8.830;2023-08-06T09:33:36;14.50;99.90
2030;DHT22;1020;48.854;8.830;2023-08-06T09:36:10;14.60;99.90
2030;DHT22;1020;48.854;8.830;2023-08-06T09:38:41;14.40;99.90
2030;DHT22;1020;48.854;8.830;2023-08-06T09:41:08;14.50;99.90
2030;DHT22;1020;48.854;8.830;2023-08-06T09:43:41;14.40;99.90
2030;DHT22;1020;48.854;8.830;2023-08-06T09:46:12;14.30;99.90
2030;DHT22;1020;48.854;8.830;2023-08-06T09:48:45;14.20;99.90
2030;DHT22;1020;48.854;8.830;2023-08-06T09:51:13;14.40;99.90
2030;DHT22;1020;48.854;8.830;2023-08-06T09:53:42;14.60;99.90
2030;DHT22;1020;48.854;8.830;2023-08-06T09:56:09;14.80;99.90
2030;DHT22;1020;48.854;8.830;2023-08-06T09:58:37;15.00;99.90
2030;DHT22;1020;48.854;8.830;2023-08-06T10:01:04;14.80;99.90
2030;DHT22;1020;48.854;8.830;2023-08-06T10:03:32;14.90;99.90
2030;DHT22;1020;48.854;8.830;2023-08-06T10:06:00;15.10;99.90
2030;DHT22;1020;48.854;8.830;2023-08-06T10:08:31;15.10;99.90
2030;DHT22;1020;48.854;8.830;2023-08-06T10:11:00;15.10;99.90
2030;DHT22;1020;48.854;8.830;2023-08-06T10:13:30;15.20;99.90
2030;DHT22;1020;48.854;8.830;2023-08-06T10:15:57;15.10;99.90
2030;DHT22;1020;48.854;8.830;2023-08-06T10:18:24;15.50;99.90
2030;DHT22;1020;48.854;8.830;2023-08-06T10:20:51;15.50;99.90
2030;DHT22;1020;48.854;8.830;2023-08-06T10:23:18;15.60;99.90
2030;DHT22;1020;48.854;8.830;2023-08-06T10:25:54;15.50;99.90
2030;DHT22;1020;48.854;8.830;2023-08-06T10:28:34;15.20;99.90
2030;DHT22;1020;48.854;8.830;2023-08-06T10:31:01;15.00;99.90
2030;DHT22;1020;48.854;8.830;2023-08-06T10:33:43;15.00;99.90
2030;DHT22;1020;48.854;8.830;2023-08-06T10:36:10;14.70;99.90
2030;DHT22;1020;48.854;8.830;2023-08-06T10:38:44;14.50;99.90
2030;DHT22;1020;48.854;8.830;2023-08-06T10:41:16;14.20;99.90
2030;DHT22;1020;48.854;8.830;2023-08-06T10:43:47;13.90;99.90
2030;DHT22;1020;48.854;8.830;2023-08-06T10:46:22;13.90;99.90
2030;DHT22;1020;48.854;8.830;2023-08-06T10:48:49;13.80;99.90
2030;DHT22;1020;48.854;8.830;2023-08-06T10:51:16;13.70;99.90
2030;DHT22;1020;48.854;8.830;2023-08-06T10:53:44;13.60;99.90
2030;DHT22;1020;48.854;8.830;2023-08-06T10:56:15;13.70;99.90
2030;DHT22;1020;48.854;8.830;2023-08-06T10:58:42;13.90;99.90
2030;DHT22;1020;48.854;8.830;2023-08-06T11:01:10;14.00;99.90
2030;DHT22;1020;48.854;8.830;2023-08-06T11:03:37;14.00;99.90
2030;DHT22;1020;48.854;8.830;2023-08-06T11:06:06;13.60;99.90
2030;DHT22;1020;48.854;8.830;2023-08-06T11:08:34;13.60;99.90
2030;DHT22;1020;48.854;8.830;2023-08-06T11:11:08;13.80;99.90
2030;DHT22;1020;48.854;8.830;2023-08-06T11:13:36;14.00;99.90
2030;DHT22;1020;48.854;8.830;2023-08-06T11:16:04;14.10;99.90
2030;DHT22;1020;48.854;8.830;2023-08-06T11:18:32;14.00;99.90
2030;DHT22;1020;48.854;8.830;2023-08-06T11:20:59;13.70;99.90
2030;DHT22;1020;48.854;8.830;2023-08-06T11:23:27;13.40;99.90
2030;DHT22;1020;48.854;8.830;2023-08-06T11:25:54;13.20;99.90
2030;DHT22;1020;48.854;8.830;2023-08-06T11:28:21;13.20;99.90
2030;DHT22;1020;48.854;8.830;2023-08-06T11:30:48;13.20;99.90
2030;DHT22;1020;48.854;8.830;2023-08-06T11:33:14;13.00;99.90
2030;DHT22;1020;48.854;8.830;2023-08-06T11:35:42;13.00;99.90
2030;DHT22;1020;48.854;8.830;2023-08-06T11:38:09;13.00;99.90
2030;DHT22;1020;48.854;8.830;2023-08-06T11:40:36;12.90;99.90
2030;DHT22;1020;48.854;8.830;2023-08-06T11:43:03;12.80;99.90
2030;DHT22;1020;48.854;8.830;2023-08-06T11:45:34;12.80;99.90
2030;DHT22;1020;48.854;8.830;2023-08-06T11:48:01;12.70;99.90
2030;DHT22;1020;48.854;8.830;2023-08-06T11:50:28;12.70;99.90
2030;DHT22;1020;48.854;8.830;2023-08-06T11:52:58;12.70;99.90
2030;DHT22;1020;48.854;8.830;2023-08-06T11:55:26;12.60;99.90
2030;DHT22;1020;48.854;8.830;2023-08-06T11:57:53;12.60;99.90
2030;DHT22;1020;48.854;8.830;2023-08-06T12:00:23;12.60;99.90
2030;DHT22;1020;48.854;8.830;2023-08-06T12:02:50;12.70;99.90
2030;DHT22;1020;48.854;8.830;2023-08-06T12:05:18;12.70;99.90
2030;DHT22;1020;48.854;8.830;2023-08-06T12:07:50;12.70;99.90
2030;DHT22;1020;48.854;8.830;2023-08-06T12:10:19;12.80;99.90
2030;DHT22;1020;48.854;8.830;2023-08-06T12:12:46;12.80;99.90
2030;DHT22;1020;48.854;8.830;2023-08-06T12:15:13;12.90;99.90
2030;DHT22;1020;48.854;8.830;2023-08-06T12:17:40;13.00;99.90
2030;DHT22;1020;48.854;8.830;2023-08-06T12:20:08;13.10;99.90
2030;DHT22;1020;48.854;8.830;2023-08-06T12:22:35;13.40;99.90
2030;DHT22;1020;48.854;8.830;2023-08-06T12:25:03;13.70;99.90
2030;DHT22;1020;48.854;8.830;2023-08-06T12:27:34;14.00;99.90
2030;DHT22;1020;48.854;8.830;2023-08-06T12:30:01;14.30;99.90
2030;DHT22;1020;48.854;8.830;2023-08-06T12:32:29;14.60;99.90
2030;DHT22;1020;48.854;8.830;2023-08-06T12:34:56;14.60;99.90
2030;DHT22;1020;48.854;8.830;2023-08-06T12:37:24;14.70;99.90
2030;DHT22;1020;48.854;8.830;2023-08-06T12:39:50;14.60;99.90
2030;DHT22;1020;48.854;8.830;2023-08-06T12:42:17;14.70;99.90
2030;DHT22;1020;48.854;8.830;2023-08-06T12:44:45;14.70;99.90
2030;DHT22;1020;48.854;8.830;2023-08-06T12:47:12;14.80;99.90
2030;DHT22;1020;48.854;8.830;2023-08-06T12:49:39;14.80;99.90
2030;DHT22;1020;48.854;8.830;2023-08-06T12:52:06;14.90;99.90
2030;DHT22;1020;48.854;8.830;2023-08-06T12:54:34;15.20;70.80
2030;DHT22;1020;48.854;8.830;2023-08-06T12:57:02;15.30;69.10
2030;DHT22;1020;48.854;8.830;2023-08-06T12:59:29;15.10;91.90
2030;DHT22;1020;48.854;8.830;2023-08-06T13:01:58;14.90;91.60
2030;DHT22;1020;48.854;8.830;2023-08-06T13:04:24;14.90;88.00
2030;DHT22;1020;48.854;8.830;2023-08-06T13:06:51;15.00;98.20
2030;DHT22;1020;48.854;8.830;2023-08-06T13:09:18;14.80;71.10
2030;DHT22;1020;48.854;8.830;2023-08-06T13:11:45;14.80;90.60
2030;DHT22;1020;48.854;8.830;2023-08-06T13:14:15;14.80;56.20
2030;DHT22;1020;48.854;8.830;2023-08-06T13:16:43;14.70;85.70
2030;DHT22;1020;48.854;8.830;2023-08-06T13:19:11;14.60;94.90
2030;DHT22;1020;48.854;8.830;2023-08-06T13:21:58;14.60;97.60
2030;DHT22;1020;48.854;8.830;2023-08-06T13:24:25;14.40;99.90
2030;DHT22;1020;48.854;8.830;2023-08-06T13:26:53;14.40;99.90
2030;DHT22;1020;48.854;8.830;2023-08-06T13:29:20;14.40;99.90
2030;DHT22;1020;48.854;8.830;2023-08-06T13:31:46;14.40;99.90
2030;DHT22;1020;48.854;8.830;2023-08-06T13:34:14;14.30;99.90
2030;DHT22;1020;48.854;8.830;2023-08-06T13:36:42;14.30;99.90
2030;DHT22;1020;48.854;8.830;2023-08-06T13:39:09;14.40;99.90
2030;DHT22;1020;48.854;8.830;2023-08-06T13:41:37;14.30;99.90
2030;DHT22;1020;48.854;8.830;2023-08-06T13:44:04;14.30;99.90
2030;DHT22;1020;48.854;8.830;2023-08-06T13:46:30;14.30;99.90
2030;DHT22;1020;48.854;8.830;2023-08-06T13:48:57;14.20;99.90
2030;DHT22;1020;48.854;8.830;2023-08-06T13:51:25;14.00;99.90
2030;DHT22;1020;48.854;8.830;2023-08-06T13:53:52;13.80;99.90
2030;DHT22;1020;48.854;8.830;2023-08-06T13:56:19;13.50;99.90
2030;DHT22;1020;48.854;8.830;2023-08-06T13:58:46;13.70;99.90
2030;DHT22;1020;48.854;8.830;2023-08-06T14:01:13;13.90;99.90
2030;DHT22;1020;48.854;8.830;2023-08-06T14:03:43;14.20;99.90
2030;DHT22;1020;48.854;8.830;2023-08-06T14:06:10;14.40;99.90
2030;DHT22;1020;48.854;8.830;2023-08-06T14:08:38;14.70;99.90
2030;DHT22;1020;48.854;8.830;2023-08-06T14:11:05;15.10;99.90
2030;DHT22;1020;48.854;8.830;2023-08-06T14:13:32;15.10;99.90
2030;DHT22;1020;48.854;8.830;2023-08-06T14:15:59;15.10;99.90
2030;DHT22;1020;48.854;8.830;2023-08-06T14:18:26;15.30;99.90
2030;DHT22;1020;48.854;8.830;2023-08-06T14:20:53;15.60;99.90
2030;DHT22;1020;48.854;8.830;2023-08-06T14:23:20;15.50;99.90
2030;DHT22;1020;48.854;8.830;2023-08-06T14:25:48;15.50;94.60
2030;DHT22;1020;48.854;8.830;2023-08-06T14:28:14;15.20;99.90
2030;DHT22;1020;48.854;8.830;2023-08-06T14:30:41;15.10;99.90
2030;DHT22;1020;48.854;8.830;2023-08-06T14:33:08;14.90;99.90
2030;DHT22;1020;48.854;8.830;2023-08-06T14:35:34;14.70;99.90
2030;DHT22;1020;48.854;8.830;2023-08-06T14:38:01;14.40;99.90
2030;DHT22;1020;48.854;8.830;2023-08-06T14:40:28;14.40;99.90
2030;DHT22;1020;48.854;8.830;2023-08-06T14:43:00;14.40;99.90
2030;DHT22;1020;48.854;8.830;2023-08-06T14:45:28;14.40;99.90
2030;DHT22;1020;48.854;8.830;2023-08-06T14:47:54;14.00;99.90
2030;DHT22;1020;48.854;8.830;2023-08-06T14:50:22;13.90;99.90
2030;DHT22;1020;48.854;8.830;2023-08-06T14:52:48;14.10;99.90
2030;DHT22;1020;48.854;8.830;2023-08-06T14:55:22;14.40;99.90
2030;DHT22;1020;48.854;8.830;2023-08-06T14:57:49;14.60;99.90
2030;DHT22;1020;48.854;8.830;2023-08-06T15:00:17;14.50;99.90
2030;DHT22;1020;48.854;8.830;2023-08-06T15:02:44;14.40;99.90
2030;DHT22;1020;48.854;8.830;2023-08-06T15:05:11;14.60;99.90
2030;DHT22;1020;48.854;8.830;2023-08-06T15:07:38;14.70;99.90
2030;DHT22;1020;48.854;8.830;2023-08-06T15:10:05;14.70;95.60
2030;DHT22;1020;48.854;8.830;2023-08-06T15:12:32;14.80;99.90
2030;DHT22;1020;48.854;8.830;2023-08-06T15:14:59;14.90;99.90
2030;DHT22;1020;48.854;8.830;2023-08-06T15:17:28;15.00;97.90
2030;DHT22;1020;48.854;8.830;2023-08-06T15:19:56;15.00;99.90
2030;DHT22;1020;48.854;8.830;2023-08-06T15:22:23;14.90;99.90
2030;DHT22;1020;48.854;8.830;2023-08-06T15:24:49;14.70;99.90
2030;DHT22;1020;48.854;8.830;2023-08-06T15:27:16;14.60;99.90
2030;DHT22;1020;48.854;8.830;2023-08-06T15:29:43;14.60;99.90
2030;DHT22;1020;48.854;8.830;2023-08-06T15:32:10;14.60;99.90
2030;DHT22;1020;48.854;8.830;2023-08-06T15:34:40;14.60;99.90
2030;DHT22;1020;48.854;8.830;2023-08-06T15:37:06;14.80;99.90
2030;DHT22;1020;48.854;8.830;2023-08-06T15:39:34;14.80;99.90
2030;DHT22;1020;48.854;8.830;2023-08-06T15:42:00;14.70;99.90
2030;DHT22;1020;48.854;8.830;2023-08-06T15:44:27;14.70;99.90
2030;DHT22;1020;48.854;8.830;2023-08-06T15:46:54;14.60;99.90
2030;DHT22;1020;48.854;8.830;2023-08-06T15:49:21;14.40;99.90
2030;DHT22;1020;48.854;8.830;2023-08-06T15:51:49;14.20;99.90
2030;DHT22;1020;48.854;8.830;2023-08-06T15:54:18;14.10;99.90
2030;DHT22;1020;48.854;8.830;2023-08-06T15:56:45;14.10;99.90
2030;DHT22;1020;48.854;8.830;2023-08-06T15:59:22;14.10;99.90
2030;DHT22;1020;48.854;8.830;2023-08-06T16:01:49;14.20;99.90
2030;DHT22;1020;48.854;8.830;2023-08-06T16:04:15;14.20;99.90